Map

Track Data

SID SEASON NUMBER BASIN SUBBASIN NAME ISO_TIME NATURE LAT LON WMO_WIND WMO_PRES WMO_AGENCY TRACK_TYPE DIST2LAND LANDFALL IFLAG USA_AGENCY USA_ATCF_ID USA_LAT USA_LON USA_RECORD USA_STATUS USA_WIND USA_PRES USA_SSHS USA_R34_NE USA_R34_SE USA_R34_SW USA_R34_NW USA_R50_NE USA_R50_SE USA_R50_SW USA_R50_NW USA_R64_NE USA_R64_SE USA_R64_SW USA_R64_NW USA_POCI USA_ROCI USA_RMW USA_EYE TOKYO_LAT TOKYO_LON TOKYO_GRADE TOKYO_WIND TOKYO_PRES TOKYO_R50_DIR TOKYO_R50_LONG TOKYO_R50_SHORT TOKYO_R30_DIR TOKYO_R30_LONG TOKYO_R30_SHORT TOKYO_LAND CMA_LAT CMA_LON CMA_CAT CMA_WIND CMA_PRES HKO_LAT HKO_LON HKO_CAT HKO_WIND HKO_PRES NEWDELHI_LAT NEWDELHI_LON NEWDELHI_GRADE NEWDELHI_WIND NEWDELHI_PRES NEWDELHI_CI NEWDELHI_DP NEWDELHI_POCI REUNION_LAT REUNION_LON REUNION_TYPE REUNION_WIND REUNION_PRES REUNION_TNUM REUNION_CI REUNION_RMW REUNION_R34_NE REUNION_R34_SE REUNION_R34_SW REUNION_R34_NW REUNION_R50_NE REUNION_R50_SE REUNION_R50_SW REUNION_R50_NW REUNION_R64_NE REUNION_R64_SE REUNION_R64_SW REUNION_R64_NW BOM_LAT BOM_LON BOM_TYPE BOM_WIND BOM_PRES BOM_TNUM BOM_CI BOM_RMW BOM_R34_NE BOM_R34_SE BOM_R34_SW BOM_R34_NW BOM_R50_NE BOM_R50_SE BOM_R50_SW BOM_R50_NW BOM_R64_NE BOM_R64_SE BOM_R64_SW BOM_R64_NW BOM_ROCI BOM_POCI BOM_EYE BOM_POS_METHOD BOM_PRES_METHOD NADI_LAT NADI_LON NADI_CAT NADI_WIND NADI_PRES WELLINGTON_LAT WELLINGTON_LON WELLINGTON_WIND WELLINGTON_PRES DS824_LAT DS824_LON DS824_STAGE DS824_WIND DS824_PRES TD9636_LAT TD9636_LON TD9636_STAGE TD9636_WIND TD9636_PRES TD9635_LAT TD9635_LON TD9635_WIND TD9635_PRES TD9635_ROCI NEUMANN_LAT NEUMANN_LON NEUMANN_CLASS NEUMANN_WIND NEUMANN_PRES MLC_LAT MLC_LON MLC_CLASS MLC_WIND MLC_PRES USA_GUST BOM_GUST BOM_GUST_PER REUNION_GUST REUNION_GUST_PER USA_SEAHGT USA_SEARAD_NE USA_SEARAD_SE USA_SEARAD_SW USA_SEARAD_NW STORM_SPEED STORM_DIR
1962189N20249 1962 48 EP MM WILLA 1962-07-08 00:00:00 TS 19.7000 -110.600 45 hurdat_epa main 363 356 O________OO___ hurdat_epa EP021962 19.7000 -110.600 TS 45 0 19.7000 -110.600 TC 45 19.7000 -110.600 2 13 284
1962189N20249 1962 48 EP MM WILLA 1962-07-08 03:00:00 TS 19.8546 -111.250 main 357 357 P________PP___ EP021962 19.8605 -111.250 TS 45 0 19.8605 -111.250 TC 45 19.8313 -111.249 2 13 283
1962189N20249 1962 48 EP MM WILLA 1962-07-08 06:00:00 TS 19.9918 -111.900 45 hurdat_epa main 379 379 O________OP___ hurdat_epa EP021962 20.0000 -111.900 TS 45 0 20.0000 -111.900 TC 45 19.9592 -111.899 2 12 281
1962189N20249 1962 48 EP MM WILLA 1962-07-08 09:00:00 TS 20.1023 -112.550 main 412 412 P________PP___ EP021962 20.1073 -112.550 TS 45 0 20.1073 -112.550 TC 45 20.0825 -112.550 2 12 280
1962189N20249 1962 48 EP MM WILLA 1962-07-08 12:00:00 TS 20.2000 -113.200 45 hurdat_epa main 447 447 O________OO___ hurdat_epa EP021962 20.2000 -113.200 TS 45 0 20.2000 -113.200 TC 45 20.2000 -113.200 2 12 279
1962189N20249 1962 48 EP MM WILLA 1962-07-08 15:00:00 TS 20.3020 -113.856 main 496 496 P________PP___ EP021962 20.2998 -113.858 TS 45 0 20.2998 -113.858 TC 45 20.3108 -113.849 2 12 279
1962189N20249 1962 48 EP MM WILLA 1962-07-08 18:00:00 TS 20.4029 -114.498 45 hurdat_epa main 535 535 O________OP___ hurdat_epa EP021962 20.4000 -114.500 TS 45 0 20.4000 -114.500 TC 45 20.4145 -114.488 2 12 280
1962189N20249 1962 48 EP MM WILLA 1962-07-08 21:00:00 TS 20.5020 -115.114 main 561 561 P________PP___ EP021962 20.4998 -115.115 TS 45 0 20.4998 -115.115 TC 45 20.5110 -115.108 2 11 280
1962189N20249 1962 48 EP MM WILLA 1962-07-09 00:00:00 TS 20.6000 -115.700 45 hurdat_epa main 588 588 O________OO___ hurdat_epa EP021962 20.6000 -115.700 TS 45 0 20.6000 -115.700 TC 45 20.6000 -115.700 2 11 281
1962189N20249 1962 48 EP MM WILLA 1962-07-09 03:00:00 TS 20.7037 -116.264 main 620 620 P________PP___ EP021962 20.7073 -116.265 TS 45 0 20.7073 -116.265 TC 45 20.6894 -116.258 2 10 281
1962189N20249 1962 48 EP MM WILLA 1962-07-09 06:00:00 TS 20.7943 -116.798 45 hurdat_epa main 649 649 O________OP___ hurdat_epa EP021962 20.8000 -116.800 TS 45 0 20.8000 -116.800 TC 45 20.7714 -116.788 2 10 279
1962189N20249 1962 48 EP MM WILLA 1962-07-09 09:00:00 TS 20.8544 -117.306 main 680 680 P________PP___ EP021962 20.8573 -117.308 TS 45 0 20.8573 -117.308 TC 45 20.8427 -117.298 2 9 276
1962189N20249 1962 48 EP MM WILLA 1962-07-09 12:00:00 TS 20.9000 -117.800 45 hurdat_epa main 720 720 O________OO___ hurdat_epa EP021962 20.9000 -117.800 TS 45 0 20.9000 -117.800 TC 45 20.9000 -117.800 2 9 276
1962189N20249 1962 48 EP MM WILLA 1962-07-09 15:00:00 TS 20.9545 -118.301 main 755 755 P________PP___ EP021962 20.9574 -118.300 TS 45 0 20.9574 -118.300 TC 45 20.9429 -118.307 2 9 276
1962189N20249 1962 48 EP MM WILLA 1962-07-09 18:00:00 TS 20.9944 -118.802 45 hurdat_epa main 797 797 O________OP___ hurdat_epa EP021962 21.0000 -118.800 TS 45 0 21.0000 -118.800 TC 45 20.9718 -118.808 2 9 273
1962189N20249 1962 48 EP MM WILLA 1962-07-09 21:00:00 TS 21.0038 -119.301 main 841 841 P________PP___ EP021962 21.0074 -119.300 TS 45 0 21.0074 -119.300 TC 45 20.9898 -119.304 2 9 270
1962189N20249 1962 48 EP MM WILLA 1962-07-10 00:00:00 TS 21.0000 -119.800 45 hurdat_epa main 882 882 O________OO___ hurdat_epa EP021962 21.0000 -119.800 TS 45 0 21.0000 -119.800 TC 45 21.0000 -119.800 2 9 270
1962189N20249 1962 48 EP MM WILLA 1962-07-10 03:00:00 TS 21.0009 -120.300 main 915 915 P________PP___ EP021962 20.9999 -120.300 TS 45 0 20.9999 -120.300 TC 45 21.0051 -120.298 2 9 270
1962189N20249 1962 48 EP MM WILLA 1962-07-10 06:00:00 TS 21.0012 -120.799 45 hurdat_epa main 949 949 O________OP___ hurdat_epa EP021962 21.0000 -120.800 TS 45 0 21.0000 -120.800 TC 45 21.0062 -120.797 2 9 270
1962189N20249 1962 48 EP MM WILLA 1962-07-10 09:00:00 TS 21.0011 -121.300 main 983 983 P________PP___ EP021962 21.0003 -121.300 TS 45 0 21.0003 -121.300 TC 45 21.0043 -121.298 2 9 270
1962189N20249 1962 48 EP MM WILLA 1962-07-10 12:00:00 TS 21.0000 -121.800 45 hurdat_epa main 1016 O________OO___ hurdat_epa EP021962 21.0000 -121.800 TS 45 0 21.0000 -121.800 TC 45 21.0000 -121.800 2 9 270

About IBTrACS Database

This database is a web-friendly format of International Best Track Archive for Climate Stewardship (IBTrACS), a global best track data archive curated by NOAA dating back to 1842.

Updated: 2021-10-21